createdAt,value
2023-04-23T00:02:00.716Z,3.83
2023-04-23T00:04:28.825Z,4.07
2023-04-23T00:06:57.162Z,4.30
2023-04-23T00:09:24.630Z,7.95
2023-04-23T00:11:51.709Z,6.65
2023-04-23T00:14:18.799Z,4.50
2023-04-23T00:16:45.926Z,4.50
2023-04-23T00:19:12.837Z,3.80
2023-04-23T00:21:39.722Z,3.70
2023-04-23T00:24:07.036Z,4.10
2023-04-23T00:26:33.922Z,3.97
2023-04-23T00:29:00.754Z,3.50
2023-04-23T00:31:27.709Z,4.00
2023-04-23T00:33:54.630Z,4.10
2023-04-23T00:36:21.456Z,4.00
2023-04-23T00:38:48.351Z,3.85
2023-04-23T00:41:15.790Z,4.20
2023-04-23T00:43:42.967Z,4.80
2023-04-23T00:46:10.469Z,4.05
2023-04-23T00:48:37.628Z,4.40
2023-04-23T00:51:05.930Z,4.00
2023-04-23T00:53:35.895Z,4.20
2023-04-23T00:56:05.390Z,4.05
2023-04-23T00:58:33.175Z,3.70
2023-04-23T01:01:00.360Z,4.13
2023-04-23T01:03:27.572Z,3.70
2023-04-23T01:05:54.623Z,3.88
2023-04-23T01:08:23.475Z,3.78
2023-04-23T01:10:50.821Z,4.00
2023-04-23T01:13:17.822Z,3.83
2023-04-23T01:15:45.595Z,4.00
2023-04-23T01:18:12.884Z,3.63
2023-04-23T01:20:39.795Z,4.10
2023-04-23T01:23:07.174Z,3.90
2023-04-23T01:25:34.774Z,4.20
2023-04-23T01:28:01.749Z,3.80
2023-04-23T01:30:29.280Z,3.70
2023-04-23T01:32:56.684Z,4.22
2023-04-23T01:35:24.659Z,3.80
2023-04-23T01:37:52.376Z,3.95
2023-04-23T01:40:20.676Z,4.00
2023-04-23T01:42:48.721Z,4.57
2023-04-23T01:45:15.701Z,4.47
2023-04-23T01:47:42.889Z,3.88
2023-04-23T01:50:10.249Z,3.50
2023-04-23T01:52:37.277Z,3.80
2023-04-23T01:55:04.697Z,3.95
2023-04-23T01:57:31.829Z,3.60
2023-04-23T02:00:06.605Z,3.60
2023-04-23T02:02:33.658Z,3.90
2023-04-23T02:05:02.222Z,3.50
2023-04-23T02:07:29.307Z,3.60
2023-04-23T02:09:56.177Z,3.70
2023-04-23T02:12:23.088Z,3.80
2023-04-23T02:14:50.036Z,3.50
2023-04-23T02:17:17.105Z,3.78
2023-04-23T02:19:43.976Z,3.90
2023-04-23T02:22:10.906Z,3.75
2023-04-23T02:24:37.870Z,3.60
2023-04-23T02:27:05.094Z,3.50
2023-04-23T02:29:31.999Z,3.30
2023-04-23T02:31:58.911Z,3.85
2023-04-23T02:34:25.769Z,3.50
2023-04-23T02:36:52.621Z,3.65
2023-04-23T02:39:19.482Z,3.60
2023-04-23T02:41:46.382Z,3.70
2023-04-23T02:44:13.211Z,4.05
2023-04-23T02:46:40.076Z,3.63
2023-04-23T02:49:06.919Z,3.70
2023-04-23T02:51:33.796Z,3.97
2023-04-23T02:54:00.634Z,3.90
2023-04-23T02:56:27.504Z,4.10
2023-04-23T02:58:54.387Z,4.10
2023-04-23T03:01:21.343Z,4.10
2023-04-23T03:03:48.595Z,4.55
2023-04-23T03:06:15.833Z,4.30
2023-04-23T03:08:42.712Z,4.60
2023-04-23T03:11:09.564Z,4.50
2023-04-23T03:13:36.390Z,4.53
2023-04-23T03:16:03.448Z,4.88
2023-04-23T03:18:30.311Z,4.85
2023-04-23T03:20:57.200Z,4.60
2023-04-23T03:23:25.196Z,4.90
2023-04-23T03:25:52.089Z,4.90
2023-04-23T03:28:18.959Z,5.00
2023-04-23T03:30:45.849Z,4.82
2023-04-23T03:33:12.723Z,4.80
2023-04-23T03:35:39.545Z,4.70
2023-04-23T03:38:06.491Z,5.07
2023-04-23T03:40:33.462Z,5.07
2023-04-23T03:43:00.355Z,5.20
2023-04-23T03:45:27.298Z,5.13
2023-04-23T03:47:54.177Z,5.40
2023-04-23T03:50:21.198Z,5.57
2023-04-23T03:52:48.165Z,5.28
2023-04-23T03:55:15.032Z,5.40
2023-04-23T03:57:41.928Z,5.20
2023-04-23T04:00:09.295Z,5.68
2023-04-23T04:02:36.295Z,5.90
2023-04-23T04:05:03.414Z,5.63
2023-04-23T04:07:30.678Z,5.43
2023-04-23T04:09:57.600Z,5.43
2023-04-23T04:12:24.553Z,5.85
2023-04-23T04:14:51.399Z,5.70
2023-04-23T04:17:18.265Z,5.70
2023-04-23T04:19:45.136Z,5.63
2023-04-23T04:22:12.066Z,5.90
2023-04-23T04:24:38.992Z,5.53
2023-04-23T04:27:05.944Z,6.13
2023-04-23T04:29:32.824Z,6.60
2023-04-23T04:31:59.781Z,6.43
2023-04-23T04:34:26.725Z,6.90
2023-04-23T04:36:53.609Z,6.10
2023-04-23T04:39:20.682Z,7.30
2023-04-23T04:41:47.862Z,6.60
2023-04-23T04:44:14.723Z,7.20
2023-04-23T04:46:41.567Z,6.78
2023-04-23T04:49:12.107Z,7.40
2023-04-23T04:51:40.677Z,7.13
2023-04-23T04:54:08.453Z,7.20
2023-04-23T04:56:35.400Z,7.40
2023-04-23T04:59:03.285Z,7.72
2023-04-23T05:01:30.615Z,7.70
2023-04-23T05:03:57.806Z,8.52
2023-04-23T05:06:24.956Z,8.05
2023-04-23T05:08:51.811Z,8.15
2023-04-23T05:11:19.895Z,8.90
2023-04-23T05:13:47.914Z,9.75
2023-04-23T05:16:15.155Z,9.02
2023-04-23T05:18:42.297Z,9.23
2023-04-23T05:21:09.553Z,10.30
2023-04-23T05:23:36.830Z,10.95
2023-04-23T05:26:04.989Z,10.65
2023-04-23T05:28:31.962Z,11.60
2023-04-23T05:30:59.066Z,12.10
2023-04-23T05:33:30.679Z,12.82
2023-04-23T05:36:00.252Z,13.30
2023-04-23T05:38:27.254Z,14.95
2023-04-23T05:40:54.101Z,15.00
2023-04-23T05:43:20.951Z,16.08
2023-04-23T05:45:47.946Z,15.75
2023-04-23T05:48:14.827Z,15.40
2023-04-23T05:50:41.718Z,17.50
2023-04-23T05:53:08.580Z,17.70
2023-04-23T05:55:35.447Z,18.10
2023-04-23T05:58:02.295Z,25.27
2023-04-23T06:00:29.276Z,21.03
2023-04-23T06:02:56.393Z,20.60
2023-04-23T06:05:23.668Z,23.20
2023-04-23T06:07:50.726Z,20.17
2023-04-23T06:10:17.624Z,22.50
2023-04-23T06:12:44.539Z,24.25
2023-04-23T06:15:11.597Z,21.52
2023-04-23T06:17:38.857Z,21.27
2023-04-23T06:20:06.535Z,22.20
2023-04-23T06:22:33.660Z,20.52
2023-04-23T06:25:00.628Z,26.70
2023-04-23T06:27:27.472Z,21.70
2023-04-23T06:29:54.323Z,22.50
2023-04-23T06:32:22.244Z,23.80
2023-04-23T06:35:00.185Z,24.20
2023-04-23T06:37:29.727Z,24.97
2023-04-23T06:39:57.175Z,25.50
2023-04-23T06:42:24.036Z,26.00
2023-04-23T06:44:50.872Z,27.30
2023-04-23T06:47:19.474Z,26.00
2023-04-23T06:49:46.520Z,27.67
2023-04-23T06:52:13.472Z,27.02
2023-04-23T06:54:40.609Z,26.55
2023-04-23T06:57:07.644Z,29.53
2023-04-23T06:59:34.551Z,27.35
2023-04-23T07:02:01.460Z,27.50
2023-04-23T07:04:28.374Z,29.65
2023-04-23T07:06:55.380Z,28.40
2023-04-23T07:09:22.270Z,29.35
2023-04-23T07:11:49.199Z,29.00
2023-04-23T07:14:16.096Z,28.63
2023-04-23T07:16:42.976Z,27.08
2023-04-23T07:19:09.911Z,28.30
2023-04-23T07:21:36.781Z,29.98
2023-04-23T07:24:03.635Z,28.20
2023-04-23T07:26:30.462Z,27.10
2023-04-23T07:28:57.379Z,29.00
2023-04-23T07:31:24.282Z,28.50
2023-04-23T07:33:51.160Z,27.75
2023-04-23T07:36:18.041Z,27.30
2023-04-23T07:38:44.995Z,27.30
2023-04-23T07:41:11.942Z,26.17
2023-04-23T07:43:40.374Z,28.23
2023-04-23T07:46:08.029Z,25.52
2023-04-23T07:48:34.918Z,30.42
2023-04-23T07:51:02.820Z,45.25
2023-04-23T07:53:29.771Z,26.83
2023-04-23T07:55:57.399Z,22.48
2023-04-23T07:58:25.324Z,18.40
2023-04-23T08:00:52.858Z,19.17
2023-04-23T08:03:19.935Z,16.13
2023-04-23T08:05:47.012Z,14.27
2023-04-23T08:08:14.006Z,15.15
2023-04-23T08:10:41.203Z,13.82
2023-04-23T08:13:08.716Z,11.48
2023-04-23T08:15:35.577Z,10.82
2023-04-23T08:18:03.714Z,8.18
2023-04-23T08:20:30.642Z,7.70
2023-04-23T08:22:57.637Z,7.78
2023-04-23T08:25:24.598Z,31.58
2023-04-23T08:27:51.449Z,16.92
2023-04-23T08:30:20.703Z,8.65
2023-04-23T08:32:51.004Z,6.70
2023-04-23T08:35:18.211Z,6.15
2023-04-23T08:37:45.281Z,6.30
2023-04-23T08:40:12.836Z,5.70
2023-04-23T08:42:43.791Z,6.53
2023-04-23T08:45:13.510Z,6.30
2023-04-23T08:47:41.752Z,6.10
2023-04-23T08:50:12.305Z,6.50
2023-04-23T08:52:42.080Z,5.60
2023-04-23T08:55:10.063Z,12.35
2023-04-23T08:57:41.260Z,14.30
2023-04-23T09:00:12.008Z,7.00
2023-04-23T09:02:44.094Z,6.60
2023-04-23T09:05:11.586Z,8.82
2023-04-23T09:07:38.821Z,6.45
2023-04-23T09:10:07.735Z,10.68
2023-04-23T09:12:39.823Z,7.10
2023-04-23T09:15:07.328Z,6.00
2023-04-23T09:17:34.892Z,5.85
2023-04-23T09:20:02.825Z,5.50
2023-04-23T09:22:48.830Z,6.03
2023-04-23T09:25:18.094Z,7.18
2023-04-23T09:27:45.824Z,5.60
2023-04-23T09:30:14.381Z,5.95
2023-04-23T09:32:43.274Z,5.80
2023-04-23T09:35:12.957Z,7.80
2023-04-23T09:37:43.184Z,5.85
2023-04-23T09:40:13.261Z,5.60
2023-04-23T09:42:40.119Z,5.65
2023-04-23T09:45:09.313Z,5.88
2023-04-23T09:47:39.311Z,6.50
2023-04-23T09:50:06.907Z,6.20
2023-04-23T09:52:34.387Z,6.30
2023-04-23T09:55:04.628Z,10.95
2023-04-23T09:57:41.015Z,7.43
2023-04-23T10:00:16.291Z,7.75
2023-04-23T10:02:51.010Z,8.40
2023-04-23T10:05:25.979Z,6.30
2023-04-23T10:07:57.036Z,6.30
2023-04-23T10:10:24.935Z,6.20
2023-04-23T10:12:55.976Z,6.05
2023-04-23T10:15:27.235Z,5.70
2023-04-23T10:17:54.954Z,5.40
2023-04-23T10:20:26.169Z,5.00
2023-04-23T10:22:55.328Z,5.20
2023-04-23T10:25:24.646Z,5.05
2023-04-23T10:27:54.697Z,5.03
2023-04-23T10:30:22.657Z,6.22
2023-04-23T10:32:50.709Z,7.47
2023-04-23T10:35:17.895Z,5.95
2023-04-23T10:37:46.518Z,7.10
2023-04-23T10:40:15.364Z,8.00
2023-04-23T10:42:44.352Z,6.22
2023-04-23T10:47:49.189Z,5.30
2023-04-23T10:50:27.911Z,5.10
2023-04-23T10:52:58.483Z,4.95
2023-04-23T10:55:28.025Z,4.88
2023-04-23T10:58:21.214Z,4.22
2023-04-23T11:00:48.203Z,4.55
2023-04-23T11:03:30.833Z,4.40
2023-04-23T11:06:05.127Z,4.60
2023-04-23T11:08:32.623Z,3.88
2023-04-23T11:11:01.893Z,4.03
2023-04-23T11:13:30.231Z,3.88
2023-04-23T11:16:15.733Z,3.90
2023-04-23T11:19:13.369Z,4.20
2023-04-23T11:22:04.411Z,6.20
2023-04-23T11:24:33.477Z,5.30
2023-04-23T11:27:02.197Z,3.70
2023-04-23T11:29:29.172Z,3.53
2023-04-23T11:34:26.781Z,4.07
2023-04-23T11:36:55.063Z,4.03
2023-04-23T11:39:23.009Z,3.60
2023-04-23T11:41:50.145Z,3.85
2023-04-23T11:44:17.080Z,4.20
2023-04-23T11:46:48.562Z,3.60
2023-04-23T11:49:16.749Z,4.17
2023-04-23T11:51:44.757Z,3.85
2023-04-23T11:54:12.626Z,3.88
2023-04-23T11:56:41.042Z,4.28
2023-04-23T11:59:08.126Z,3.80
2023-04-23T12:01:45.126Z,3.50
2023-04-23T12:04:16.294Z,3.90
2023-04-23T12:06:45.672Z,3.80
2023-04-23T12:09:13.901Z,4.40
2023-04-23T12:11:42.609Z,6.72
2023-04-23T12:14:10.719Z,4.00
2023-04-23T12:16:47.917Z,3.40
2023-04-23T12:19:16.895Z,3.42
2023-04-23T12:21:55.357Z,3.47
2023-04-23T12:24:27.191Z,3.47
2023-04-23T12:26:55.581Z,3.15
2023-04-23T12:29:23.414Z,3.70
2023-04-23T12:31:51.981Z,3.28
2023-04-23T12:34:20.822Z,3.10
2023-04-23T12:36:49.709Z,3.20
2023-04-23T12:39:28.016Z,3.10
2023-04-23T12:42:03.381Z,3.47
2023-04-23T12:44:31.750Z,3.50
2023-04-23T12:47:00.848Z,2.90
2023-04-23T12:49:28.227Z,2.80
2023-04-23T12:51:56.632Z,2.80
2023-04-23T12:54:27.197Z,2.50
2023-04-23T12:56:54.157Z,3.10
2023-04-23T12:59:21.496Z,2.90
2023-04-23T13:01:49.020Z,3.47
2023-04-23T13:04:15.900Z,2.70
2023-04-23T13:06:43.391Z,2.45
2023-04-23T13:09:10.798Z,2.58
2023-04-23T13:11:41.305Z,2.42
2023-04-23T13:14:11.612Z,2.58
2023-04-23T13:16:41.033Z,2.65
2023-04-23T13:19:07.911Z,2.75
2023-04-23T13:21:34.946Z,2.87
2023-04-23T13:24:01.828Z,2.40
2023-04-23T13:26:28.813Z,2.40
2023-04-23T13:28:55.674Z,2.50
2023-04-23T13:31:22.601Z,2.30
2023-04-23T13:33:49.479Z,2.60
2023-04-23T13:36:16.404Z,2.00
2023-04-23T13:38:43.295Z,2.30
2023-04-23T13:41:10.127Z,2.60
2023-04-23T13:43:36.999Z,2.50
2023-04-23T13:46:04.063Z,2.40
2023-04-23T13:48:31.098Z,2.20
2023-04-23T13:51:02.340Z,2.50
2023-04-23T13:53:29.442Z,2.15
2023-04-23T13:55:57.215Z,2.17
2023-04-23T13:58:24.355Z,2.20
2023-04-23T14:00:52.158Z,2.13
2023-04-23T14:03:19.168Z,1.90
2023-04-23T14:05:46.382Z,1.80
2023-04-23T14:08:13.305Z,1.85
2023-04-23T14:10:43.881Z,1.80
2023-04-23T14:13:10.916Z,1.80
2023-04-23T14:15:37.896Z,1.70
2023-04-23T14:18:05.170Z,2.00
2023-04-23T14:20:32.025Z,1.90
2023-04-23T14:23:04.412Z,3.95
2023-04-23T14:25:40.090Z,3.00
2023-04-23T14:28:30.106Z,4.20
2023-04-23T14:31:04.170Z,2.72
2023-04-23T14:33:31.031Z,2.40
2023-04-23T14:35:58.327Z,2.05
2023-04-23T14:38:25.201Z,3.10
2023-04-23T14:40:52.255Z,2.55
2023-04-23T14:43:19.320Z,2.30
2023-04-23T14:45:46.253Z,2.00
2023-04-23T14:48:13.239Z,2.20
2023-04-23T14:50:40.201Z,2.30
2023-04-23T14:53:07.154Z,2.92
2023-04-23T14:55:34.513Z,2.70
2023-04-23T14:58:01.577Z,2.47
2023-04-23T15:00:28.755Z,2.00
2023-04-23T15:02:56.709Z,2.60
2023-04-23T15:05:23.909Z,2.10
2023-04-23T15:07:50.840Z,2.10
2023-04-23T15:10:17.713Z,2.10
2023-04-23T15:13:10.676Z,3.72
2023-04-23T15:15:45.044Z,4.82
2023-04-23T15:18:14.557Z,2.70
2023-04-23T15:20:42.148Z,6.30
2023-04-23T15:23:10.115Z,2.42
2023-04-23T15:25:37.192Z,2.20
2023-04-23T15:28:04.138Z,2.33
2023-04-23T15:30:31.078Z,2.17
2023-04-23T15:32:57.983Z,2.50
2023-04-23T15:35:25.957Z,2.28
2023-04-23T15:37:53.501Z,2.40
2023-04-23T15:40:20.529Z,2.03
2023-04-23T15:42:47.503Z,2.30
2023-04-23T15:45:14.418Z,2.50
2023-04-23T15:47:41.323Z,2.40
2023-04-23T15:50:09.570Z,2.33
2023-04-23T15:52:37.269Z,2.60
2023-04-23T15:55:04.397Z,2.40
2023-04-23T15:57:31.515Z,2.58
2023-04-23T15:59:58.534Z,2.50
2023-04-23T16:02:25.571Z,2.40
2023-04-23T16:04:52.661Z,3.10
2023-04-23T16:07:19.626Z,2.80
2023-04-23T16:09:46.555Z,2.75
2023-04-23T16:12:13.463Z,2.97
2023-04-23T16:14:40.505Z,2.45
2023-04-23T16:17:07.536Z,2.60
2023-04-23T16:19:34.461Z,2.90
2023-04-23T16:22:01.378Z,2.70
2023-04-23T16:24:28.326Z,3.00
2023-04-23T16:26:55.371Z,2.80
2023-04-23T16:29:23.161Z,2.50
2023-04-23T16:31:50.680Z,2.67
2023-04-23T16:34:17.742Z,2.70
2023-04-23T16:36:44.720Z,3.40
2023-04-23T16:39:11.791Z,3.20
2023-04-23T16:41:38.787Z,3.78
2023-04-23T16:44:05.843Z,3.70
2023-04-23T16:46:32.879Z,3.00
2023-04-23T16:48:59.932Z,2.95
2023-04-23T16:51:26.952Z,2.85
2023-04-23T16:53:54.336Z,2.90
2023-04-23T16:56:21.864Z,3.00
2023-04-23T16:58:48.986Z,2.90
2023-04-23T17:01:16.509Z,2.93
2023-04-23T17:03:46.175Z,4.25
2023-04-23T17:06:29.680Z,3.20
2023-04-23T17:08:58.551Z,3.00
2023-04-23T17:11:26.551Z,2.70
2023-04-23T17:13:53.696Z,2.70
2023-04-23T17:16:21.001Z,2.80
2023-04-23T17:18:48.090Z,2.60
2023-04-23T17:21:15.098Z,2.90
2023-04-23T17:23:42.002Z,2.50
2023-04-23T17:26:08.860Z,3.08
2023-04-23T17:28:35.715Z,2.70
2023-04-23T17:31:03.316Z,2.70
2023-04-23T17:33:30.297Z,3.33
2023-04-23T17:35:57.215Z,2.73
2023-04-23T17:38:24.308Z,3.10
2023-04-23T17:40:52.790Z,3.10
2023-04-23T17:43:20.493Z,6.40
2023-04-23T17:45:47.883Z,2.80
2023-04-23T17:48:15.585Z,3.08
2023-04-23T17:50:43.085Z,3.00
2023-04-23T17:53:10.195Z,3.60
2023-04-23T17:55:37.127Z,2.90
2023-04-23T17:58:04.013Z,2.70
2023-04-23T18:00:34.073Z,3.00
2023-04-23T18:03:01.347Z,2.90
2023-04-23T18:05:28.309Z,2.70
2023-04-23T18:07:55.230Z,2.85
2023-04-23T18:10:22.403Z,2.65
2023-04-23T18:12:49.497Z,2.70
2023-04-23T18:15:16.581Z,2.30
2023-04-23T18:17:43.493Z,2.60
2023-04-23T18:20:10.641Z,2.38
2023-04-23T18:22:38.330Z,2.22
2023-04-23T18:25:06.622Z,2.40
2023-04-23T18:27:34.267Z,2.20
2023-04-23T18:30:01.508Z,3.40
2023-04-23T18:32:34.611Z,2.50
2023-04-23T18:35:02.070Z,4.30
2023-04-23T18:37:33.749Z,3.10
2023-04-23T18:40:00.648Z,2.30
2023-04-23T18:42:27.608Z,2.40
2023-04-23T18:44:54.837Z,2.13
2023-04-23T18:47:26.020Z,2.40
2023-04-23T18:50:00.781Z,2.20
2023-04-23T18:52:27.656Z,2.30
2023-04-23T18:54:54.624Z,2.30
2023-04-23T18:57:21.536Z,2.40
2023-04-23T18:59:48.406Z,2.50
2023-04-23T19:02:28.254Z,2.00
2023-04-23T19:05:02.082Z,2.40
2023-04-23T19:07:29.001Z,2.20
2023-04-23T19:09:55.926Z,2.30
2023-04-23T19:12:22.823Z,2.20
2023-04-23T19:14:49.662Z,2.40
2023-04-23T19:17:18.648Z,2.78
2023-04-23T19:19:45.953Z,3.58
2023-04-23T19:22:13.029Z,3.55
2023-04-23T19:24:39.918Z,4.35
2023-04-23T19:27:06.896Z,3.20
2023-04-23T19:29:33.737Z,3.10
2023-04-23T19:32:00.908Z,3.10
2023-04-23T19:34:27.755Z,2.60
2023-04-23T19:36:54.701Z,3.00
2023-04-23T19:39:21.641Z,2.70
2023-04-23T19:41:48.544Z,3.10
2023-04-23T19:44:15.436Z,2.70
2023-04-23T19:46:42.319Z,2.33
2023-04-23T19:49:09.281Z,2.10
2023-04-23T19:51:37.127Z,2.30
2023-04-23T19:54:05.251Z,2.22
2023-04-23T19:56:32.153Z,2.05
2023-04-23T19:58:59.035Z,2.40
2023-04-23T20:01:26.047Z,3.00
2023-04-23T20:03:53.082Z,2.63
2023-04-23T20:06:20.055Z,2.40
2023-04-23T20:08:46.993Z,2.47
2023-04-23T20:11:13.889Z,6.10
2023-04-23T20:13:40.753Z,3.50
2023-04-23T20:16:07.622Z,2.53
2023-04-23T20:18:34.488Z,2.55
2023-04-23T20:21:01.323Z,2.15
2023-04-23T20:23:28.246Z,2.33
2023-04-23T20:25:55.078Z,2.47
2023-04-23T20:28:22.012Z,3.05
2023-04-23T20:30:48.848Z,4.78
2023-04-23T20:33:16.316Z,5.18
2023-04-23T20:35:43.227Z,2.70
2023-04-23T20:38:10.174Z,2.35
2023-04-23T20:40:37.096Z,2.30
2023-04-23T20:43:03.973Z,2.40
2023-04-23T20:45:30.898Z,2.40
2023-04-23T20:47:57.768Z,2.53
2023-04-23T20:50:24.807Z,2.60
2023-04-23T20:52:51.721Z,2.72
2023-04-23T20:55:18.630Z,2.60
2023-04-23T20:57:45.505Z,2.60
2023-04-23T21:00:12.654Z,2.70
2023-04-23T21:02:39.908Z,2.60
2023-04-23T21:05:07.865Z,2.60
2023-04-23T21:07:34.912Z,2.67
2023-04-23T21:10:01.811Z,2.80
2023-04-23T21:12:28.844Z,2.80
2023-04-23T21:14:55.771Z,2.70
2023-04-23T21:17:22.796Z,2.80
2023-04-23T21:19:50.000Z,2.90
2023-04-23T21:22:17.234Z,2.80
2023-04-23T21:24:44.117Z,3.00
2023-04-23T21:27:13.853Z,2.70
2023-04-23T21:29:41.101Z,2.60
2023-04-23T21:32:08.381Z,2.70
2023-04-23T21:34:35.271Z,2.80
2023-04-23T21:37:02.272Z,2.50
2023-04-23T21:39:30.084Z,2.70
2023-04-23T21:41:57.012Z,2.60
2023-04-23T21:44:23.938Z,2.30
2023-04-23T21:46:50.916Z,2.50
2023-04-23T21:49:17.815Z,2.65
2023-04-23T21:51:44.700Z,2.60
2023-04-23T21:54:11.643Z,2.90
2023-04-23T21:56:38.611Z,2.50
2023-04-23T21:59:05.491Z,2.60
2023-04-23T22:01:34.984Z,2.60
2023-04-23T22:04:03.622Z,2.28
2023-04-23T22:06:30.989Z,3.45
2023-04-23T22:08:57.857Z,3.45
2023-04-23T22:11:24.749Z,3.93
2023-04-23T22:13:51.609Z,2.50
2023-04-23T22:16:28.224Z,2.55
2023-04-23T22:18:56.973Z,2.60
2023-04-23T22:21:23.909Z,2.40
2023-04-23T22:23:50.958Z,2.50
2023-04-23T22:26:17.876Z,2.80
2023-04-23T22:28:45.411Z,2.60
2023-04-23T22:31:12.289Z,2.95
2023-04-23T22:33:39.190Z,2.70
2023-04-23T22:36:06.338Z,2.50
2023-04-23T22:38:33.290Z,2.60
2023-04-23T22:41:00.191Z,2.50
2023-04-23T22:43:27.111Z,2.60
2023-04-23T22:45:53.971Z,2.50
2023-04-23T22:48:20.968Z,2.70
2023-04-23T22:50:47.826Z,2.60
2023-04-23T22:53:14.678Z,2.80
2023-04-23T22:55:41.604Z,2.60
2023-04-23T22:58:08.465Z,2.60
2023-04-23T23:00:35.729Z,2.60
2023-04-23T23:03:02.645Z,2.70
2023-04-23T23:05:29.541Z,2.60
2023-04-23T23:07:56.414Z,3.00
2023-04-23T23:10:23.318Z,2.83
2023-04-23T23:12:50.227Z,2.90
2023-04-23T23:15:17.147Z,3.05
2023-04-23T23:17:44.109Z,2.90
2023-04-23T23:20:11.304Z,2.70
2023-04-23T23:22:38.656Z,2.70
2023-04-23T23:25:06.293Z,2.70
2023-04-23T23:27:33.189Z,2.60
2023-04-23T23:30:00.153Z,2.55
2023-04-23T23:32:27.048Z,2.60
2023-04-23T23:34:53.989Z,2.90
2023-04-23T23:37:20.838Z,2.63
2023-04-23T23:39:47.712Z,2.80
2023-04-23T23:42:14.622Z,3.00
2023-04-23T23:44:41.550Z,2.60
2023-04-23T23:47:08.749Z,2.80
2023-04-23T23:49:35.662Z,2.75
2023-04-23T23:52:02.823Z,2.80
2023-04-23T23:54:29.860Z,2.78
2023-04-23T23:56:56.728Z,2.75
2023-04-23T23:59:23.936Z,3.15
